createdAt,value
2023-02-15T00:00:39.753Z,93.90
2023-02-15T00:03:06.294Z,93.28
2023-02-15T00:05:32.826Z,92.93
2023-02-15T00:07:59.339Z,92.13
2023-02-15T00:10:27.079Z,92.41
2023-02-15T00:12:53.591Z,91.84
2023-02-15T00:17:51.340Z,91.36
2023-02-15T00:20:19.486Z,90.49
2023-02-15T00:22:46.166Z,90.24
2023-02-15T00:25:12.686Z,89.99
2023-02-15T00:27:39.208Z,90.25
2023-02-15T00:30:07.124Z,90.24
2023-02-15T00:32:33.707Z,89.91
2023-02-15T00:35:00.247Z,90.19
2023-02-15T00:37:26.751Z,90.53
2023-02-15T00:39:53.270Z,91.15
2023-02-15T00:42:19.800Z,91.71
2023-02-15T00:44:46.370Z,92.05
2023-02-15T00:47:12.909Z,92.51
2023-02-15T00:49:39.560Z,92.50
2023-02-15T00:52:06.102Z,93.03
2023-02-15T00:54:32.630Z,92.39
2023-02-15T00:56:59.172Z,91.56
2023-02-15T00:59:25.721Z,90.14
2023-02-15T01:01:52.259Z,91.10
2023-02-15T01:04:18.824Z,90.69
2023-02-15T01:06:45.403Z,91.10
2023-02-15T01:09:13.592Z,90.47
2023-02-15T01:11:40.146Z,89.34
2023-02-15T01:14:06.703Z,88.88
2023-02-15T01:16:33.347Z,90.74
2023-02-15T01:18:59.949Z,88.40
2023-02-15T01:21:27.133Z,88.12
2023-02-15T01:23:54.265Z,89.24
2023-02-15T01:26:20.926Z,90.08
2023-02-15T01:28:48.056Z,89.27
2023-02-15T01:31:18.157Z,90.05
2023-02-15T01:33:45.725Z,91.47
2023-02-15T01:36:12.467Z,90.95
2023-02-15T01:38:40.760Z,90.31
2023-02-15T01:41:24.514Z,89.19
2023-02-15T01:44:00.096Z,88.18
2023-02-15T01:46:38.363Z,90.72
2023-02-15T01:49:27.664Z,90.55
2023-02-15T01:51:54.204Z,89.86
2023-02-15T01:57:11.921Z,90.44
2023-02-15T01:59:40.699Z,90.02
2023-02-15T02:02:10.699Z,90.38
2023-02-15T02:04:44.595Z,91.18
2023-02-15T02:07:13.684Z,90.74
2023-02-15T02:09:40.282Z,91.66
2023-02-15T02:12:08.217Z,91.46
2023-02-15T02:14:35.080Z,91.76
2023-02-15T02:17:42.364Z,91.27
2023-02-15T02:20:28.927Z,91.26
2023-02-15T02:23:10.224Z,91.09
2023-02-15T02:25:51.828Z,91.17
2023-02-15T02:28:18.423Z,91.78
2023-02-15T02:31:02.632Z,91.32
2023-02-15T02:34:02.302Z,91.25
2023-02-15T02:36:43.214Z,91.80
2023-02-15T02:39:28.242Z,89.35
2023-02-15T02:42:17.016Z,88.72
2023-02-15T02:44:53.201Z,89.37
2023-02-15T02:47:28.276Z,91.15
2023-02-15T02:50:01.691Z,90.80
2023-02-15T02:55:32.456Z,91.57
2023-02-15T02:58:05.626Z,91.01
2023-02-15T03:00:45.488Z,91.68
2023-02-15T03:03:21.309Z,91.79
2023-02-15T03:05:51.375Z,92.33
2023-02-15T03:08:23.200Z,92.52
2023-02-15T03:10:54.153Z,93.02
2023-02-15T03:13:21.686Z,92.54
2023-02-15T03:16:08.963Z,92.31
2023-02-15T03:18:40.121Z,93.02
2023-02-15T03:21:09.264Z,92.81
2023-02-15T03:23:38.252Z,92.67
2023-02-15T03:26:08.518Z,92.38
2023-02-15T03:28:42.320Z,93.52
2023-02-15T03:31:11.154Z,94.12
2023-02-15T03:33:45.045Z,93.48
2023-02-15T03:36:29.751Z,92.66
2023-02-15T03:39:03.530Z,92.63
2023-02-15T03:41:35.316Z,91.07
2023-02-15T03:44:12.776Z,91.69
2023-02-15T03:47:04.222Z,91.57
2023-02-15T03:49:46.804Z,91.45
2023-02-15T03:52:16.885Z,91.03
2023-02-15T03:54:44.874Z,90.19
2023-02-15T04:00:34.309Z,91.22
2023-02-15T04:03:15.755Z,91.56
2023-02-15T04:05:45.925Z,90.90
2023-02-15T04:08:14.056Z,90.82
2023-02-15T04:10:53.246Z,89.55
2023-02-15T04:13:32.029Z,89.66
2023-02-15T04:16:05.855Z,90.05
2023-02-15T04:19:02.884Z,90.63
2023-02-15T04:21:49.972Z,89.92
2023-02-15T04:24:35.661Z,90.73
2023-02-15T04:27:03.527Z,89.50
2023-02-15T04:29:30.708Z,89.94
2023-02-15T04:32:00.614Z,89.72
2023-02-15T04:34:27.373Z,90.01
2023-02-15T04:39:25.199Z,89.35
2023-02-15T04:41:51.893Z,89.64
2023-02-15T04:44:18.552Z,90.65
2023-02-15T04:46:45.096Z,90.50
2023-02-15T04:49:11.654Z,90.13
2023-02-15T04:51:38.239Z,89.37
2023-02-15T04:54:05.045Z,88.22
2023-02-15T04:56:32.310Z,89.21
2023-02-15T04:58:58.840Z,89.34
2023-02-15T05:03:57.944Z,87.84
2023-02-15T05:06:24.536Z,88.03
2023-02-15T05:08:51.573Z,88.21
2023-02-15T05:11:18.126Z,87.13
2023-02-15T05:13:44.642Z,87.34
2023-02-15T05:16:11.358Z,88.11
2023-02-15T05:18:37.949Z,90.17
2023-02-15T05:21:04.970Z,89.28
2023-02-15T05:23:31.481Z,88.43
2023-02-15T05:26:16.910Z,88.33
2023-02-15T05:28:43.488Z,87.11
2023-02-15T05:31:14.186Z,87.27
2023-02-15T05:33:41.642Z,87.91
2023-02-15T05:36:08.661Z,89.07
2023-02-15T05:38:38.387Z,89.91
2023-02-15T05:41:05.695Z,89.49
2023-02-15T05:43:32.669Z,90.35
2023-02-15T05:45:59.362Z,89.40
2023-02-15T05:48:27.441Z,89.74
2023-02-15T05:53:33.678Z,89.79
2023-02-15T05:56:01.655Z,90.00
2023-02-15T05:58:39.105Z,90.49
2023-02-15T06:01:24.123Z,90.52
2023-02-15T06:03:51.119Z,91.04
2023-02-15T06:06:17.819Z,90.69
2023-02-15T06:08:44.823Z,90.00
2023-02-15T06:11:11.978Z,90.07
2023-02-15T06:13:39.131Z,89.51
2023-02-15T06:16:07.036Z,90.20
2023-02-15T06:18:33.733Z,89.58
2023-02-15T06:21:00.268Z,89.50
2023-02-15T06:23:26.843Z,89.09
2023-02-15T06:25:53.381Z,88.24
2023-02-15T06:28:19.910Z,88.98
2023-02-15T06:30:47.320Z,88.88
2023-02-15T06:33:13.957Z,89.22
2023-02-15T06:35:40.501Z,89.80
2023-02-15T06:38:07.046Z,90.17
2023-02-15T06:40:33.566Z,87.58
2023-02-15T06:43:00.131Z,87.56
2023-02-15T06:45:26.769Z,87.69
2023-02-15T06:47:53.373Z,87.73
2023-02-15T06:50:19.999Z,88.25
2023-02-15T06:52:46.524Z,88.17
2023-02-15T06:55:13.072Z,88.94
2023-02-15T06:57:39.625Z,89.23
2023-02-15T07:00:07.154Z,89.77
2023-02-15T07:02:33.706Z,87.38
2023-02-15T07:05:00.560Z,88.09
2023-02-15T07:07:27.328Z,89.07
2023-02-15T07:09:53.846Z,89.12
2023-02-15T07:12:38.964Z,91.30
2023-02-15T07:15:07.813Z,87.22
2023-02-15T07:17:36.308Z,88.05
2023-02-15T07:20:10.983Z,89.17
2023-02-15T07:22:38.266Z,89.59
2023-02-15T07:25:09.683Z,89.94
2023-02-15T07:27:36.617Z,90.52
2023-02-15T07:32:35.622Z,91.73
2023-02-15T07:35:02.377Z,91.03
2023-02-15T07:37:29.284Z,90.56
2023-02-15T07:39:55.820Z,90.33
2023-02-15T07:42:23.198Z,91.03
2023-02-15T07:44:50.288Z,90.75
2023-02-15T07:47:17.032Z,90.04
2023-02-15T07:49:43.538Z,90.17
2023-02-15T07:52:10.334Z,90.54
2023-02-15T07:54:36.845Z,91.43
2023-02-15T07:57:03.524Z,91.12
2023-02-15T07:59:30.063Z,91.82
2023-02-15T08:01:57.649Z,90.73
2023-02-15T08:04:25.347Z,90.36
2023-02-15T08:06:55.425Z,90.72
2023-02-15T08:09:22.670Z,91.21
2023-02-15T08:11:49.858Z,89.93
2023-02-15T08:14:23.247Z,88.41
2023-02-15T08:16:52.326Z,88.48
2023-02-15T08:19:20.575Z,89.46
2023-02-15T08:24:25.840Z,90.05
2023-02-15T08:26:53.333Z,89.36
2023-02-15T08:29:23.483Z,89.96
2023-02-15T08:31:50.908Z,90.51
2023-02-15T08:34:20.678Z,89.16
2023-02-15T08:36:47.404Z,89.45
2023-02-15T08:39:15.508Z,89.75
2023-02-15T08:41:47.248Z,89.48
2023-02-15T08:44:16.297Z,87.51
2023-02-15T08:46:44.882Z,88.27
2023-02-15T08:49:16.498Z,87.98
2023-02-15T08:51:43.370Z,88.23
2023-02-15T08:54:13.771Z,88.95
2023-02-15T08:56:42.518Z,87.65
2023-02-15T08:59:21.230Z,87.64
2023-02-15T09:01:49.647Z,87.78
2023-02-15T09:06:56.147Z,86.82
2023-02-15T09:09:23.129Z,86.40
2023-02-15T09:11:56.809Z,85.61
2023-02-15T09:14:27.802Z,85.91
2023-02-15T09:16:54.686Z,86.51
2023-02-15T09:19:25.497Z,85.39
2023-02-15T09:21:52.636Z,84.65
2023-02-15T09:26:51.078Z,82.50
2023-02-15T09:29:19.059Z,83.35
2023-02-15T09:31:49.945Z,81.33
2023-02-15T09:34:19.466Z,81.17
2023-02-15T09:39:25.988Z,78.92
2023-02-15T09:45:13.288Z,77.91
2023-02-15T09:48:06.495Z,79.16
2023-02-15T09:51:20.416Z,76.96
2023-02-15T09:53:57.431Z,76.86
2023-02-15T09:56:38.624Z,75.66
2023-02-15T09:59:15.903Z,75.76
2023-02-15T10:02:17.330Z,74.55
2023-02-15T10:04:52.808Z,74.96
2023-02-15T10:07:37.490Z,75.15
2023-02-15T10:10:16.263Z,73.22
2023-02-15T10:12:57.042Z,71.21
2023-02-15T10:15:28.692Z,71.06
2023-02-15T10:18:04.377Z,71.26
2023-02-15T10:20:37.316Z,72.91
2023-02-15T10:23:12.740Z,74.38
2023-02-15T10:25:57.311Z,75.33
2023-02-15T10:31:25.072Z,75.27
2023-02-15T10:34:36.950Z,75.97
2023-02-15T10:37:30.645Z,75.51
2023-02-15T10:40:11.233Z,76.21
2023-02-15T10:42:49.700Z,75.27
2023-02-15T10:45:40.744Z,75.47
2023-02-15T10:48:32.337Z,74.43
2023-02-15T10:51:01.534Z,76.12
2023-02-15T10:53:30.835Z,75.41
2023-02-15T10:56:21.333Z,73.34
2023-02-15T10:59:02.550Z,76.18
2023-02-15T11:01:47.901Z,75.19
2023-02-15T11:04:48.408Z,75.81
2023-02-15T11:07:25.897Z,73.88
2023-02-15T11:10:08.625Z,72.68
2023-02-15T11:12:35.462Z,71.60
2023-02-15T11:15:25.871Z,71.56
2023-02-15T11:18:12.928Z,69.62
2023-02-15T11:20:47.235Z,69.82
2023-02-15T11:23:17.469Z,69.70
2023-02-15T11:25:47.510Z,68.78
2023-02-15T11:28:50.465Z,67.76
2023-02-15T11:31:27.455Z,68.05
2023-02-15T11:33:59.864Z,67.04
2023-02-15T11:36:32.885Z,66.71
2023-02-15T11:39:05.025Z,66.23
2023-02-15T11:41:38.528Z,66.14
2023-02-15T11:44:16.846Z,65.68
2023-02-15T11:46:43.552Z,65.61
2023-02-15T11:49:28.037Z,65.78
2023-02-15T11:51:56.510Z,67.03
2023-02-15T11:54:28.993Z,66.45
2023-02-15T11:59:38.693Z,66.42
2023-02-15T12:02:23.954Z,66.45
2023-02-15T12:05:16.959Z,66.28
2023-02-15T12:07:49.666Z,66.40
2023-02-15T12:24:23.390Z,64.54
2023-02-15T12:27:01.758Z,64.12
2023-02-15T12:29:32.460Z,64.11
2023-02-15T12:32:00.100Z,62.68
2023-02-15T12:34:32.080Z,63.38
2023-02-15T12:37:03.332Z,63.38
2023-02-15T12:39:32.557Z,62.85
2023-02-15T12:42:17.144Z,63.67
2023-02-15T12:44:57.407Z,62.86
2023-02-15T12:47:29.017Z,63.67
2023-02-15T12:50:20.204Z,62.37
2023-02-15T12:52:49.981Z,61.90
2023-02-15T12:55:30.646Z,60.59
2023-02-15T12:58:18.437Z,59.45
2023-02-15T13:00:46.904Z,59.61
2023-02-15T13:03:22.740Z,58.83
2023-02-15T13:05:53.083Z,60.61
2023-02-15T13:08:31.562Z,60.00
2023-02-15T13:11:08.272Z,60.09
2023-02-15T13:13:37.376Z,58.59
2023-02-15T13:18:46.377Z,58.92
2023-02-15T13:21:19.771Z,59.09
2023-02-15T13:23:53.597Z,56.97
2023-02-15T13:26:24.583Z,57.38
2023-02-15T13:28:56.130Z,56.88
2023-02-15T13:31:26.312Z,56.08
2023-02-15T13:34:03.785Z,55.64
2023-02-15T13:36:42.571Z,55.73
2023-02-15T13:39:28.615Z,56.34
2023-02-15T13:42:04.081Z,55.72
2023-02-15T13:47:48.346Z,55.68
2023-02-15T13:50:52.802Z,56.47
2023-02-15T13:53:42.917Z,57.49
2023-02-15T13:56:18.039Z,57.63
2023-02-15T13:59:16.898Z,58.44
2023-02-15T14:01:49.297Z,58.94
2023-02-15T14:04:24.798Z,59.37
2023-02-15T14:07:04.362Z,60.03
2023-02-15T14:10:13.241Z,60.83
2023-02-15T14:12:42.537Z,60.87
2023-02-15T14:15:28.014Z,60.81
2023-02-15T14:18:25.599Z,60.70
2023-02-15T14:21:31.716Z,61.46
2023-02-15T14:24:17.776Z,62.07
2023-02-15T14:26:55.828Z,62.01
2023-02-15T14:29:55.822Z,62.33
2023-02-15T14:32:34.763Z,62.79
2023-02-15T14:35:03.499Z,62.71
2023-02-15T14:37:39.114Z,62.54
2023-02-15T14:41:00.312Z,63.13
2023-02-15T14:43:46.084Z,62.61
2023-02-15T14:46:42.993Z,62.89
2023-02-15T14:49:15.071Z,63.13
2023-02-15T14:51:41.590Z,63.24
2023-02-15T14:54:08.922Z,63.69
2023-02-15T14:56:36.062Z,63.97
2023-02-15T14:59:14.977Z,63.71
2023-02-15T15:01:42.522Z,62.81
2023-02-15T15:04:14.639Z,62.62
2023-02-15T15:06:45.033Z,62.63
2023-02-15T15:09:28.591Z,63.05
2023-02-15T15:12:14.299Z,63.50
2023-02-15T15:14:44.274Z,63.73
2023-02-15T15:17:13.071Z,64.29
2023-02-15T15:19:51.970Z,64.48
2023-02-15T15:22:19.926Z,64.45
2023-02-15T15:24:48.300Z,64.57
2023-02-15T15:27:46.650Z,64.58
2023-02-15T15:30:16.144Z,65.23
2023-02-15T15:32:58.087Z,64.91
2023-02-15T15:39:10.918Z,65.54
2023-02-15T15:41:47.965Z,65.54
2023-02-15T15:44:36.172Z,66.13
2023-02-15T15:47:24.893Z,66.86
2023-02-15T15:49:56.920Z,67.56
2023-02-15T15:55:05.581Z,67.86
2023-02-15T15:57:40.369Z,68.43
2023-02-15T16:00:27.126Z,69.13
2023-02-15T16:02:54.854Z,69.67
2023-02-15T16:07:55.195Z,70.19
2023-02-15T16:10:23.588Z,70.49
2023-02-15T16:12:51.613Z,70.95
2023-02-15T16:15:24.598Z,71.82
2023-02-15T16:20:32.499Z,72.20
2023-02-15T16:23:34.113Z,72.78
2023-02-15T16:26:19.304Z,73.45
2023-02-15T16:28:53.897Z,72.92
2023-02-15T16:31:23.404Z,72.76
2023-02-15T16:33:54.048Z,71.43
2023-02-15T16:36:26.371Z,71.89
2023-02-15T16:41:29.122Z,73.72
2023-02-15T16:44:00.237Z,74.70
2023-02-15T16:46:32.506Z,75.89
2023-02-15T16:49:03.377Z,76.53
2023-02-15T16:51:32.439Z,77.46
2023-02-15T16:54:08.171Z,77.78
2023-02-15T16:56:35.805Z,78.33
2023-02-15T16:59:02.957Z,79.45
2023-02-15T17:01:32.018Z,79.43
2023-02-15T17:07:14.937Z,80.15
2023-02-15T17:09:51.592Z,79.57
2023-02-15T17:12:47.311Z,79.21
2023-02-15T17:15:38.199Z,78.77
2023-02-15T17:18:20.563Z,79.67
2023-02-15T17:20:49.858Z,79.70
2023-02-15T17:23:54.530Z,79.95
2023-02-15T17:26:24.927Z,80.80
2023-02-15T17:28:54.976Z,81.19
2023-02-15T17:31:24.919Z,80.79
2023-02-15T17:33:54.850Z,81.50
2023-02-15T17:36:23.859Z,82.12
2023-02-15T17:39:02.447Z,83.18
2023-02-15T17:41:38.370Z,83.87
2023-02-15T17:44:05.653Z,84.91
2023-02-15T17:46:36.947Z,85.41
2023-02-15T17:49:04.605Z,85.41
2023-02-15T17:51:32.367Z,86.25
2023-02-15T17:54:17.380Z,86.80
2023-02-15T17:56:44.612Z,86.01
2023-02-15T17:59:12.560Z,85.94
2023-02-15T18:02:05.063Z,86.82
2023-02-15T18:04:53.838Z,86.99
2023-02-15T18:07:39.130Z,87.81
2023-02-15T18:13:11.911Z,88.45
2023-02-15T18:15:38.692Z,87.93
2023-02-15T18:18:05.253Z,88.31
2023-02-15T18:20:37.054Z,88.68
2023-02-15T18:23:03.663Z,88.82
2023-02-15T18:25:30.398Z,88.97
2023-02-15T18:27:57.151Z,89.23
2023-02-15T18:30:26.755Z,88.58
2023-02-15T18:35:31.573Z,88.50
2023-02-15T18:38:00.614Z,88.21
2023-02-15T18:40:28.927Z,89.04
2023-02-15T18:42:57.191Z,88.36
2023-02-15T18:45:32.526Z,88.53
2023-02-15T18:47:59.402Z,89.04
2023-02-15T18:50:31.123Z,89.26
2023-02-15T18:52:57.957Z,90.11
2023-02-15T18:55:28.650Z,90.19
2023-02-15T19:00:35.114Z,89.36
2023-02-15T19:03:02.711Z,88.62
2023-02-15T19:05:31.716Z,87.03
2023-02-15T19:08:00.719Z,85.99
2023-02-15T19:10:29.803Z,85.56
2023-02-15T19:12:56.739Z,85.38
2023-02-15T19:15:26.384Z,84.87
2023-02-15T19:17:54.106Z,88.45
2023-02-15T19:20:27.213Z,85.57
2023-02-15T19:22:56.519Z,86.06
2023-02-15T19:25:27.273Z,86.44
2023-02-15T19:27:54.868Z,87.13
2023-02-15T19:30:27.134Z,87.27
2023-02-15T19:32:53.761Z,87.60
2023-02-15T19:37:59.555Z,87.74
2023-02-15T19:40:31.905Z,86.88
2023-02-15T19:42:58.971Z,87.65
2023-02-15T19:45:28.802Z,87.14
2023-02-15T19:47:55.721Z,86.53
2023-02-15T19:50:28.221Z,86.68
2023-02-15T19:52:55.023Z,86.19
2023-02-15T19:55:26.479Z,85.87
2023-02-15T19:57:54.166Z,85.43
2023-02-15T20:00:32.066Z,85.33
2023-02-15T20:05:34.210Z,85.09
2023-02-15T20:10:41.482Z,84.68
2023-02-15T20:13:13.518Z,84.02
2023-02-15T20:15:41.183Z,86.45
2023-02-15T20:18:08.187Z,87.48
2023-02-15T20:20:45.794Z,87.17
2023-02-15T20:23:22.767Z,88.32
2023-02-15T20:25:50.511Z,88.51
2023-02-15T20:28:24.949Z,88.12
2023-02-15T20:30:52.031Z,87.01
2023-02-15T20:33:20.178Z,86.48
2023-02-15T20:35:47.616Z,85.52
2023-02-15T20:38:27.116Z,85.64
2023-02-15T20:41:15.258Z,86.14
2023-02-15T20:43:42.064Z,86.34
2023-02-15T20:46:08.903Z,86.85
2023-02-15T20:48:35.677Z,86.25
2023-02-15T20:51:02.990Z,85.85
2023-02-15T20:53:30.036Z,85.47
2023-02-15T20:55:56.909Z,85.48
2023-02-15T20:58:26.313Z,84.73
2023-02-15T21:00:54.563Z,84.43
2023-02-15T21:03:24.626Z,84.89
2023-02-15T21:05:51.172Z,84.58
2023-02-15T21:08:21.378Z,84.55
2023-02-15T21:10:49.862Z,83.36
2023-02-15T21:16:01.860Z,85.00
2023-02-15T21:18:31.922Z,86.41
2023-02-15T21:21:01.495Z,87.16
2023-02-15T21:23:38.052Z,88.52
2023-02-15T21:26:05.678Z,87.37
2023-02-15T21:28:32.287Z,86.75
2023-02-15T21:30:59.435Z,87.81
2023-02-15T21:33:26.754Z,88.27
2023-02-15T21:35:57.430Z,88.07
2023-02-15T21:38:29.207Z,88.40
2023-02-15T21:41:15.922Z,88.05
2023-02-15T21:44:00.964Z,89.22
2023-02-15T21:46:42.525Z,90.04
2023-02-15T21:49:10.836Z,89.19
2023-02-15T21:51:55.930Z,89.20
2023-02-15T21:54:22.550Z,89.11
2023-02-15T21:56:51.070Z,89.45
2023-02-15T21:59:18.427Z,89.67
2023-02-15T22:04:29.622Z,89.46
2023-02-15T22:06:57.089Z,89.98
2023-02-15T22:09:25.604Z,89.53
2023-02-15T22:11:53.257Z,90.03
2023-02-15T22:14:25.575Z,89.51
2023-02-15T22:16:52.119Z,89.14
2023-02-15T22:19:19.026Z,91.45
2023-02-15T22:21:45.619Z,87.79
2023-02-15T22:24:12.202Z,87.28
2023-02-15T22:26:38.774Z,87.10
2023-02-15T22:29:05.913Z,86.12
2023-02-15T22:31:32.494Z,86.36
2023-02-15T22:33:59.185Z,86.96
2023-02-15T22:36:31.038Z,87.90
2023-02-15T22:38:58.210Z,88.18
2023-02-15T22:41:28.977Z,89.47
2023-02-15T22:43:56.908Z,89.47
2023-02-15T22:46:25.253Z,90.28
2023-02-15T22:48:52.752Z,89.70
2023-02-15T22:51:22.425Z,89.20
2023-02-15T22:53:53.387Z,89.36
2023-02-15T22:56:45.190Z,90.09
2023-02-15T23:04:31.473Z,91.18
2023-02-15T23:07:00.698Z,91.27
2023-02-15T23:09:27.285Z,91.25
2023-02-15T23:11:54.521Z,91.13
2023-02-15T23:14:35.895Z,91.68
2023-02-15T23:17:02.712Z,91.24
2023-02-15T23:19:29.296Z,91.48
2023-02-15T23:21:55.817Z,90.97
2023-02-15T23:24:28.293Z,90.91
2023-02-15T23:29:46.916Z,91.44
2023-02-15T23:32:14.616Z,91.27
2023-02-15T23:34:42.471Z,92.44
2023-02-15T23:37:12.989Z,92.07
2023-02-15T23:39:58.346Z,92.70
2023-02-15T23:42:28.956Z,92.46
2023-02-15T23:44:55.963Z,91.82
2023-02-15T23:47:45.715Z,92.15
2023-02-15T23:50:24.029Z,92.46
2023-02-15T23:52:51.835Z,91.90
2023-02-15T23:55:19.536Z,91.79
2023-02-15T23:57:46.998Z,92.17
